Time;durP1;ratioP1;P1;durP2;ratioP2;P2;SDS_P1;SDS_P2;PMS_P1;PMS_P2;Temp;Humidity;BMP_temperature;BMP_pressure;BME280_temperature;BME280_humidity;BME280_pressure;Samples;Min_cycle;Max_cycle;Signal;HPM_P1;HPM_P2
2021/04/25 00:01:10;;;;;;;8.40;4.60;;;10.20;49.50;;;;;;5046164;28;20020;-66
2021/04/25 00:03:36;;;;;;;12.63;5.25;;;10.10;49.70;;;;;;5045723;28;20163;-66
2021/04/25 00:06:02;;;;;;;9.60;4.50;;;10.10;50.10;;;;;;5049603;28;20065;-66
2021/04/25 00:08:28;;;;;;;10.50;4.85;;;10.00;50.20;;;;;;5049481;28;20400;-66
2021/04/25 00:10:54;;;;;;;11.32;4.30;;;10.10;50.40;;;;;;5045383;28;20036;-66
2021/04/25 00:13:20;;;;;;;8.65;4.85;;;10.10;50.30;;;;;;5050156;28;20028;-66
2021/04/25 00:15:46;;;;;;;9.25;4.63;;;10.00;50.30;;;;;;5049519;28;20330;-66
2021/04/25 00:18:11;;;;;;;14.32;5.60;;;10.00;50.20;;;;;;5051516;28;20017;-66
2021/04/25 00:20:37;;;;;;;12.68;5.50;;;9.90;50.30;;;;;;5049390;28;20017;-66
2021/04/25 00:23:03;;;;;;;9.75;5.43;;;9.90;50.30;;;;;;5050285;28;20527;-66
2021/04/25 00:25:29;;;;;;;8.98;5.22;;;9.80;50.30;;;;;;5042788;28;20033;-67
2021/04/25 00:27:54;;;;;;;9.30;4.75;;;9.70;50.50;;;;;;5040386;28;20082;-66
2021/04/25 00:30:21;;;;;;;7.15;4.80;;;9.70;50.80;;;;;;5047771;28;20028;-66
2021/04/25 00:32:47;;;;;;;10.57;4.97;;;9.60;51.10;;;;;;5047503;28;20044;-66
2021/04/25 00:35:14;;;;;;;8.02;4.85;;;9.60;51.30;;;;;;5040507;28;20041;-66
2021/04/25 00:37:40;;;;;;;11.57;5.35;;;9.60;51.40;;;;;;5046527;28;20033;-66
2021/04/25 00:40:09;;;;;;;10.32;5.25;;;9.50;51.20;;;;;;5042991;28;20062;-66
2021/04/25 00:42:35;;;;;;;9.30;4.63;;;9.50;51.20;;;;;;5048055;28;20106;-67
2021/04/25 00:45:07;;;;;;;10.02;4.93;;;9.50;51.10;;;;;;5045716;28;20389;-66
2021/04/25 00:47:33;;;;;;;6.97;4.65;;;9.50;51.40;;;;;;5050640;28;20114;-67
2021/04/25 00:49:59;;;;;;;7.88;5.07;;;9.50;51.50;;;;;;5052003;28;20036;-66
2021/04/25 00:52:26;;;;;;;10.63;5.05;;;9.40;51.40;;;;;;5048786;28;20200;-66
2021/04/25 00:54:52;;;;;;;9.52;4.95;;;9.40;51.60;;;;;;5037767;28;20030;-66
2021/04/25 00:57:21;;;;;;;9.15;4.53;;;9.30;51.50;;;;;;5050556;28;20573;-67
2021/04/25 00:59:47;;;;;;;8.80;4.40;;;9.30;52.00;;;;;;5042265;28;20040;-66
2021/04/25 01:02:13;;;;;;;8.68;4.93;;;9.30;51.70;;;;;;5038864;28;20057;-66
2021/04/25 01:04:39;;;;;;;7.32;4.18;;;9.20;51.70;;;;;;5047769;28;20111;-67
2021/04/25 01:07:05;;;;;;;8.90;4.53;;;9.20;51.70;;;;;;5044489;28;20052;-66
2021/04/25 01:09:31;;;;;;;8.90;5.13;;;9.10;51.90;;;;;;5048936;28;20029;-67
2021/04/25 01:11:57;;;;;;;8.15;4.93;;;9.00;52.00;;;;;;5048795;28;20055;-66
2021/04/25 01:14:23;;;;;;;9.48;4.65;;;9.00;52.20;;;;;;5048390;28;20021;-67
2021/04/25 01:16:49;;;;;;;8.32;4.65;;;8.90;52.20;;;;;;5049219;28;20082;-67
2021/04/25 01:19:15;;;;;;;6.72;4.38;;;8.80;52.20;;;;;;5049601;28;20025;-65
2021/04/25 01:21:41;;;;;;;9.13;4.43;;;8.80;52.30;;;;;;5043718;28;20119;-66
2021/04/25 01:24:07;;;;;;;9.25;5.07;;;8.80;52.50;;;;;;5038288;28;20505;-67
2021/04/25 01:26:33;;;;;;;8.85;4.45;;;8.70;52.50;;;;;;5045486;28;20171;-67
2021/04/25 01:28:58;;;;;;;9.82;5.22;;;8.70;52.70;;;;;;5049859;28;20057;-66
2021/04/25 01:31:24;;;;;;;9.48;4.93;;;8.70;52.70;;;;;;5047620;28;20380;-66
2021/04/25 01:33:50;;;;;;;9.50;4.72;;;8.70;52.70;;;;;;5048109;28;20037;-66
2021/04/25 01:36:16;;;;;;;10.30;4.68;;;8.60;52.80;;;;;;5042507;28;20473;-66
2021/04/25 01:38:41;;;;;;;11.25;5.72;;;8.60;52.80;;;;;;5047601;28;20171;-66
2021/04/25 01:41:07;;;;;;;7.50;4.30;;;8.60;52.90;;;;;;5032195;28;20024;-66
2021/04/25 01:43:33;;;;;;;9.88;5.20;;;8.50;53.10;;;;;;5047633;28;20032;-66
2021/04/25 01:45:58;;;;;;;9.35;5.40;;;8.50;53.20;;;;;;5049331;28;20209;-66
2021/04/25 01:48:24;;;;;;;7.55;4.68;;;8.50;53.10;;;;;;5048870;28;20163;-66
2021/04/25 01:50:50;;;;;;;7.75;4.78;;;8.50;53.10;;;;;;5046266;28;20032;-66
2021/04/25 01:53:16;;;;;;;10.02;5.43;;;8.50;53.00;;;;;;5049167;28;20033;-66
2021/04/25 01:55:42;;;;;;;10.27;5.15;;;8.50;53.30;;;;;;5047962;28;20033;-66
2021/04/25 01:58:10;;;;;;;8.80;4.80;;;8.50;53.20;;;;;;5048721;28;20473;-66
2021/04/25 02:00:42;;;;;;;7.75;4.88;;;8.50;53.30;;;;;;5040953;28;20036;-66
2021/04/25 02:03:09;;;;;;;9.45;5.15;;;8.50;53.60;;;;;;5048203;28;20048;-66
2021/04/25 02:05:36;;;;;;;8.70;5.38;;;8.50;53.40;;;;;;5048018;28;20087;-66
2021/04/25 02:08:02;;;;;;;10.45;5.05;;;8.50;53.50;;;;;;5049095;28;20079;-66
2021/04/25 02:10:28;;;;;;;10.27;5.03;;;8.40;53.80;;;;;;5038378;28;20490;-67
2021/04/25 02:12:55;;;;;;;8.77;5.00;;;8.50;54.00;;;;;;5047953;28;20120;-66
2021/04/25 02:15:22;;;;;;;11.00;4.80;;;8.40;53.70;;;;;;5048274;28;20021;-66
2021/04/25 02:17:48;;;;;;;8.20;4.93;;;8.40;53.70;;;;;;5044962;28;20033;-66
2021/04/25 02:20:15;;;;;;;9.25;5.28;;;8.40;53.70;;;;;;5046748;28;20021;-66
2021/04/25 02:22:41;;;;;;;8.45;4.97;;;8.30;53.80;;;;;;5043709;28;20036;-66
2021/04/25 02:25:09;;;;;;;9.05;4.72;;;8.30;53.80;;;;;;5037466;28;20033;-66
2021/04/25 02:27:34;;;;;;;11.02;5.20;;;8.30;53.90;;;;;;5044235;28;20020;-66
2021/04/25 02:30:00;;;;;;;13.10;5.50;;;8.20;53.90;;;;;;5047713;28;20138;-66
2021/04/25 02:32:26;;;;;;;9.48;5.00;;;8.20;53.80;;;;;;5048264;28;20120;-66
2021/04/25 02:34:52;;;;;;;8.52;4.80;;;8.20;53.90;;;;;;5048705;28;20432;-66
2021/04/25 02:37:18;;;;;;;11.82;5.38;;;8.10;54.00;;;;;;5048481;28;20025;-66
2021/04/25 02:39:44;;;;;;;9.57;5.13;;;8.00;54.00;;;;;;5042728;28;20401;-66
2021/04/25 02:42:10;;;;;;;7.55;4.72;;;8.00;54.20;;;;;;5048037;28;20103;-66
2021/04/25 02:44:35;;;;;;;10.00;5.45;;;7.90;54.40;;;;;;5047929;28;20056;-66
2021/04/25 02:47:01;;;;;;;12.90;5.22;;;7.90;54.50;;;;;;5057410;23;20063;-85
2021/04/25 02:49:27;;;;;;;8.93;5.10;;;7.90;54.60;;;;;;5049707;28;20025;-84
2021/04/25 02:51:52;;;;;;;8.45;5.15;;;7.80;54.70;;;;;;5046523;28;20485;-84
2021/04/25 02:54:18;;;;;;;12.07;5.45;;;7.80;54.80;;;;;;5031156;28;20049;-84
2021/04/25 02:56:44;;;;;;;9.95;5.60;;;7.80;54.80;;;;;;5035029;28;20037;-84
2021/04/25 02:59:10;;;;;;;9.73;5.50;;;7.80;54.80;;;;;;5032703;28;20059;-85
2021/04/25 03:01:35;;;;;;;10.18;5.38;;;7.80;55.00;;;;;;5016515;28;20026;-84
2021/04/25 03:04:01;;;;;;;10.85;5.57;;;7.80;55.00;;;;;;5016005;28;20406;-84
2021/04/25 03:06:26;;;;;;;12.38;5.63;;;7.80;54.80;;;;;;5034966;28;20057;-84
2021/04/25 03:08:52;;;;;;;10.80;5.78;;;7.80;54.80;;;;;;5026701;28;20061;-84
2021/04/25 03:11:18;;;;;;;11.13;6.18;;;7.70;54.80;;;;;;5020491;28;20030;-84
2021/04/25 03:13:43;;;;;;;11.18;6.13;;;7.60;54.90;;;;;;5025133;28;20089;-84
2021/04/25 03:16:09;;;;;;;13.18;6.00;;;7.60;55.30;;;;;;5050877;28;20063;-83
2021/04/25 03:18:35;;;;;;;10.90;5.93;;;7.60;55.30;;;;;;5045072;28;20033;-84
2021/04/25 03:21:01;;;;;;;10.57;5.50;;;7.50;55.30;;;;;;5035884;28;20064;-84
2021/04/25 03:23:26;;;;;;;11.82;5.07;;;7.50;55.40;;;;;;5034250;28;20489;-84
2021/04/25 03:25:52;;;;;;;10.68;6.35;;;7.50;55.50;;;;;;5023935;28;20090;-84
2021/04/25 03:28:19;;;;;;;11.68;6.05;;;7.50;56.10;;;;;;5021153;28;20050;-84
2021/04/25 03:30:45;;;;;;;12.20;5.80;;;7.50;55.70;;;;;;5033589;28;20034;-83
2021/04/25 03:33:11;;;;;;;11.60;6.47;;;7.40;55.60;;;;;;5027315;28;20029;-84
2021/04/25 03:35:36;;;;;;;12.55;6.05;;;7.40;55.70;;;;;;5020949;28;20499;-84
2021/04/25 03:38:02;;;;;;;10.73;6.53;;;7.40;55.80;;;;;;5100870;23;20037;-63
2021/04/25 03:40:27;;;;;;;10.65;6.30;;;7.40;55.90;;;;;;5052308;28;20025;-63
2021/04/25 03:42:53;;;;;;;12.90;6.10;;;7.40;55.80;;;;;;5051638;28;20036;-62
2021/04/25 03:45:19;;;;;;;10.95;6.47;;;7.40;55.70;;;;;;5052251;28;20021;-63
2021/04/25 03:47:47;;;;;;;10.48;6.35;;;7.40;55.80;;;;;;5046058;28;20033;-63
2021/04/25 03:50:15;;;;;;;11.18;6.40;;;7.30;55.90;;;;;;5050250;28;20021;-64
2021/04/25 03:52:42;;;;;;;14.10;6.53;;;7.20;55.90;;;;;;5050067;28;20033;-63
2021/04/25 03:55:09;;;;;;;14.98;6.60;;;7.20;56.00;;;;;;5051156;28;20036;-62
2021/04/25 03:57:34;;;;;;;13.32;6.53;;;7.10;56.10;;;;;;5050959;28;21278;-64
2021/04/25 04:00:00;;;;;;;12.45;6.70;;;7.10;56.10;;;;;;5049493;28;20341;-60
2021/04/25 04:02:26;;;;;;;10.10;5.95;;;7.00;56.20;;;;;;5051705;28;20450;-62
2021/04/25 04:04:52;;;;;;;11.38;6.53;;;7.00;56.30;;;;;;5052400;28;20041;-62
2021/04/25 04:07:17;;;;;;;9.95;5.95;;;7.00;56.40;;;;;;5052026;28;20397;-63
2021/04/25 04:09:43;;;;;;;12.07;6.45;;;7.00;56.40;;;;;;5048466;28;20032;-62
2021/04/25 04:12:09;;;;;;;12.73;7.20;;;7.00;56.50;;;;;;5050239;28;20029;-61
2021/04/25 04:14:35;;;;;;;16.25;7.30;;;7.00;56.70;;;;;;5050751;28;20055;-61
2021/04/25 04:17:00;;;;;;;13.50;6.75;;;7.00;56.60;;;;;;5047816;28;20277;-61
2021/04/25 04:19:26;;;;;;;13.63;6.90;;;7.00;56.70;;;;;;5049427;28;20029;-61
2021/04/25 04:21:51;;;;;;;14.02;6.80;;;7.00;56.50;;;;;;5050823;28;20098;-63
2021/04/25 04:24:17;;;;;;;13.90;6.75;;;6.90;56.50;;;;;;5045073;28;20785;-62
2021/04/25 04:26:42;;;;;;;12.30;6.50;;;6.90;56.70;;;;;;5031377;28;20030;-61
2021/04/25 04:29:08;;;;;;;10.07;6.28;;;6.80;56.90;;;;;;5049898;28;20044;-61
2021/04/25 04:31:34;;;;;;;14.35;7.20;;;6.90;57.00;;;;;;5052476;28;20036;-62
2021/04/25 04:33:59;;;;;;;12.82;7.07;;;6.90;56.90;;;;;;5049377;28;20029;-62
2021/04/25 04:36:25;;;;;;;14.40;7.15;;;6.90;56.80;;;;;;5050836;28;20425;-60
2021/04/25 04:38:50;;;;;;;13.15;6.90;;;6.90;56.80;;;;;;5049648;28;20045;-61
2021/04/25 04:41:16;;;;;;;11.70;7.10;;;6.90;57.00;;;;;;5049664;28;20393;-60
2021/04/25 04:43:42;;;;;;;14.68;7.05;;;6.90;56.90;;;;;;5052078;28;20495;-62
2021/04/25 04:46:07;;;;;;;15.60;7.03;;;6.90;56.80;;;;;;5050529;28;20034;-62
2021/04/25 04:48:33;;;;;;;17.15;7.65;;;6.90;56.90;;;;;;5044649;28;20647;-60
2021/04/25 04:50:58;;;;;;;13.43;6.57;;;6.90;57.00;;;;;;5051547;28;20025;-62
2021/04/25 04:53:24;;;;;;;13.18;6.88;;;7.00;57.00;;;;;;5048105;28;20140;-61
2021/04/25 04:55:50;;;;;;;13.93;6.72;;;7.00;57.10;;;;;;5050938;28;20512;-62
2021/04/25 04:58:15;;;;;;;13.98;7.13;;;7.10;57.10;;;;;;5050176;28;20025;-59
2021/04/25 05:00:41;;;;;;;10.43;6.68;;;7.30;57.10;;;;;;5050219;28;20032;-59
2021/04/25 05:03:07;;;;;;;16.08;7.68;;;7.40;57.10;;;;;;5050324;28;20033;-59
2021/04/25 05:05:32;;;;;;;13.00;7.68;;;7.50;56.70;;;;;;5050973;28;20032;-63
2021/04/25 05:07:58;;;;;;;12.13;7.25;;;7.60;56.70;;;;;;5036719;28;20116;-62
2021/04/25 05:10:23;;;;;;;13.77;7.32;;;7.70;56.60;;;;;;5047420;28;20504;-62
2021/04/25 05:12:49;;;;;;;11.52;6.65;;;7.80;56.60;;;;;;5048355;28;20064;-63
2021/04/25 05:15:15;;;;;;;14.70;7.75;;;7.90;56.60;;;;;;5048545;28;20116;-62
2021/04/25 05:17:41;;;;;;;14.10;7.72;;;7.90;56.50;;;;;;5045837;28;20037;-62
2021/04/25 05:20:07;;;;;;;11.73;7.18;;;8.00;56.50;;;;;;5050624;28;20017;-61
2021/04/25 05:22:33;;;;;;;18.30;8.15;;;8.10;56.50;;;;;;5048262;28;20120;-61
2021/04/25 05:24:58;;;;;;;13.15;7.20;;;8.20;56.70;;;;;;5038919;28;20101;-63
2021/04/25 05:27:24;;;;;;;11.00;7.22;;;8.30;56.80;;;;;;5044461;28;20033;-63
2021/04/25 05:29:50;;;;;;;12.30;7.40;;;8.40;56.60;;;;;;5049432;28;20408;-64
2021/04/25 05:32:15;;;;;;;10.88;6.93;;;8.50;56.60;;;;;;5051301;28;20033;-63
2021/04/25 05:34:41;;;;;;;11.82;7.38;;;8.60;56.50;;;;;;5050088;28;20037;-63
2021/04/25 05:37:06;;;;;;;13.77;7.70;;;8.70;56.70;;;;;;5050184;28;20039;-61
2021/04/25 05:39:32;;;;;;;13.52;7.47;;;8.80;56.40;;;;;;5050360;28;20028;-63
2021/04/25 05:41:59;;;;;;;15.88;7.80;;;8.90;56.20;;;;;;5050825;28;20487;-65
2021/04/25 05:44:27;;;;;;;17.65;7.70;;;8.90;56.10;;;;;;5048687;28;20032;-60
2021/04/25 05:46:56;;;;;;;13.02;7.30;;;8.90;56.20;;;;;;5045253;28;20527;-62
2021/04/25 05:49:21;;;;;;;13.52;7.45;;;9.00;56.20;;;;;;5047492;28;20315;-61
2021/04/25 05:51:47;;;;;;;13.52;7.47;;;9.10;56.20;;;;;;5049759;28;20128;-60
2021/04/25 05:54:13;;;;;;;15.02;7.18;;;9.10;56.30;;;;;;5050501;28;20064;-61
2021/04/25 05:56:38;;;;;;;12.88;7.40;;;9.10;56.20;;;;;;5050745;28;20049;-61
2021/04/25 05:59:04;;;;;;;13.13;6.82;;;9.10;56.20;;;;;;5049993;28;20090;-63
2021/04/25 06:01:29;;;;;;;12.75;7.30;;;9.20;56.20;;;;;;5049943;28;20021;-61
2021/04/25 06:03:55;;;;;;;11.73;7.13;;;9.20;56.00;;;;;;5050017;28;20063;-63
2021/04/25 06:06:21;;;;;;;14.80;8.02;;;9.40;55.80;;;;;;5050711;28;20747;-61
2021/04/25 06:08:46;;;;;;;13.85;7.38;;;9.40;55.80;;;;;;5049581;28;20465;-62
2021/04/25 06:11:12;;;;;;;12.57;7.88;;;9.50;55.70;;;;;;5050927;28;20036;-62
2021/04/25 06:13:38;;;;;;;12.48;7.18;;;9.50;55.60;;;;;;5050172;28;20056;-62
2021/04/25 06:16:04;;;;;;;12.68;7.28;;;9.60;55.40;;;;;;5043081;28;20022;-63
2021/04/25 06:18:29;;;;;;;12.93;7.63;;;9.60;55.50;;;;;;5044637;28;20083;-62
2021/04/25 06:20:55;;;;;;;13.38;6.93;;;9.60;55.50;;;;;;5049840;28;20033;-61
2021/04/25 06:23:21;;;;;;;13.65;7.38;;;9.60;55.40;;;;;;5049023;28;20028;-61
2021/04/25 06:25:47;;;;;;;11.73;7.38;;;9.60;55.50;;;;;;5049312;28;20384;-63
2021/04/25 06:28:13;;;;;;;13.73;7.18;;;9.70;55.70;;;;;;5046093;28;20025;-61
2021/04/25 06:30:39;;;;;;;12.82;7.60;;;9.80;55.60;;;;;;5048292;28;20036;-63
2021/04/25 06:33:05;;;;;;;15.75;7.32;;;9.90;55.50;;;;;;5050010;28;20515;-63
2021/04/25 06:35:30;;;;;;;13.20;6.45;;;9.90;55.20;;;;;;5049672;28;20064;-63
2021/04/25 06:37:56;;;;;;;11.32;7.47;;;10.10;55.20;;;;;;5049636;28;20082;-60
2021/04/25 06:40:22;;;;;;;13.32;7.57;;;10.20;55.10;;;;;;5050279;28;20036;-62
2021/04/25 06:42:47;;;;;;;14.18;7.40;;;10.30;55.00;;;;;;5050465;28;20016;-62
2021/04/25 06:45:16;;;;;;;11.50;7.25;;;10.50;55.00;;;;;;5049453;28;20032;-63
2021/04/25 06:47:42;;;;;;;10.77;6.97;;;10.70;54.80;;;;;;5047483;28;20047;-63
2021/04/25 06:50:11;;;;;;;15.43;7.10;;;10.90;54.40;;;;;;5048908;28;20124;-63
2021/04/25 06:52:38;;;;;;;11.52;6.47;;;11.10;54.20;;;;;;5050387;28;20032;-61
2021/04/25 06:55:04;;;;;;;11.15;6.25;;;11.30;54.00;;;;;;5048617;28;20017;-63
2021/04/25 06:57:30;;;;;;;12.35;6.78;;;11.60;53.80;;;;;;5049875;28;20017;-63
2021/04/25 06:59:56;;;;;;;9.85;5.88;;;11.80;53.30;;;;;;5047951;28;20107;-63
2021/04/25 07:02:21;;;;;;;12.73;5.97;;;11.90;52.90;;;;;;5048491;28;20025;-62
2021/04/25 07:04:47;;;;;;;11.27;5.85;;;12.10;52.80;;;;;;5048604;28;20493;-62
2021/04/25 07:07:13;;;;;;;11.73;5.88;;;12.20;52.50;;;;;;5049357;28;20025;-63
2021/04/25 07:09:39;;;;;;;10.75;6.10;;;12.40;52.20;;;;;;5049202;28;20051;-64
2021/04/25 07:12:05;;;;;;;9.52;5.05;;;12.60;51.80;;;;;;5049297;28;20032;-64
2021/04/25 07:14:31;;;;;;;11.85;5.70;;;12.80;51.50;;;;;;5048080;28;20028;-62
2021/04/25 07:16:56;;;;;;;10.52;5.75;;;13.00;50.70;;;;;;5035141;28;20033;-67
2021/04/25 07:19:22;;;;;;;10.70;5.45;;;13.20;50.50;;;;;;5048631;28;20042;-61
2021/04/25 07:21:47;;;;;;;9.50;5.57;;;13.50;50.20;;;;;;5050118;28;20025;-63
2021/04/25 07:24:13;;;;;;;8.65;5.63;;;13.70;50.00;;;;;;5049827;28;20053;-60
2021/04/25 07:26:39;;;;;;;8.73;5.47;;;14.00;49.30;;;;;;5048480;28;20029;-60
2021/04/25 07:29:04;;;;;;;12.52;5.30;;;14.40;48.50;;;;;;5045686;28;20063;-62
2021/04/25 07:31:30;;;;;;;9.18;5.07;;;14.90;47.60;;;;;;5046878;28;20040;-74
2021/04/25 07:33:56;;;;;;;10.52;5.10;;;14.80;47.70;;;;;;5049268;28;20040;-73
2021/04/25 07:36:21;;;;;;;7.53;4.30;;;14.40;48.30;;;;;;5046670;28;20137;-72
2021/04/25 07:38:47;;;;;;;9.88;5.45;;;14.20;49.00;;;;;;5050849;28;20033;-72
2021/04/25 07:41:14;;;;;;;8.63;4.38;;;14.40;48.90;;;;;;5049143;28;20057;-73
2021/04/25 07:43:39;;;;;;;10.15;4.70;;;14.80;48.40;;;;;;5049758;28;20068;-70
2021/04/25 07:46:05;;;;;;;6.60;4.75;;;15.40;47.60;;;;;;5049709;28;20500;-70
2021/04/25 07:48:31;;;;;;;10.57;5.18;;;15.90;46.70;;;;;;5044893;28;20848;-70
2021/04/25 07:50:56;;;;;;;8.60;5.05;;;16.60;46.00;;;;;;5049340;28;20021;-70
2021/04/25 07:53:22;;;;;;;8.27;4.38;;;17.00;45.10;;;;;;5048024;28;20139;-70
2021/04/25 07:55:48;;;;;;;9.23;4.88;;;17.50;44.50;;;;;;5048340;28;20067;-71
2021/04/25 07:58:13;;;;;;;9.77;5.35;;;18.00;43.90;;;;;;5049390;28;20018;-71
2021/04/25 08:00:39;;;;;;;5.70;4.20;;;18.50;43.00;;;;;;5048843;28;20029;-71
2021/04/25 08:03:05;;;;;;;7.18;4.80;;;18.80;42.10;;;;;;5053651;28;20025;-71
2021/04/25 08:05:31;;;;;;;7.47;4.72;;;19.20;41.90;;;;;;5052807;28;20481;-71
2021/04/25 08:07:57;;;;;;;6.45;4.45;;;19.50;41.00;;;;;;5052386;28;20032;-71
2021/04/25 08:10:23;;;;;;;7.00;4.60;;;19.90;40.70;;;;;;5053242;28;20060;-71
2021/04/25 08:12:49;;;;;;;6.60;4.43;;;20.30;40.20;;;;;;5052701;28;20060;-71
2021/04/25 08:15:14;;;;;;;6.20;4.30;;;20.70;39.60;;;;;;5051822;28;20053;-71
2021/04/25 08:17:40;;;;;;;7.97;4.32;;;21.30;39.10;;;;;;5051777;28;20201;-68
2021/04/25 08:20:07;;;;;;;7.80;4.70;;;21.70;38.20;;;;;;5045400;28;20029;-68
2021/04/25 08:22:33;;;;;;;5.70;4.18;;;22.00;37.60;;;;;;5050602;28;20115;-68
2021/04/25 08:24:59;;;;;;;4.97;4.03;;;22.30;37.10;;;;;;5052075;28;20109;-71
2021/04/25 08:27:24;;;;;;;11.25;4.30;;;22.60;36.50;;;;;;5049947;28;20032;-68
2021/04/25 08:29:50;;;;;;;10.50;9.23;;;22.60;36.40;;;;;;5049910;28;20709;-72
2021/04/25 08:32:15;;;;;;;6.35;4.00;;;22.70;36.50;;;;;;5051313;28;20040;-71
2021/04/25 08:34:41;;;;;;;6.55;3.90;;;23.10;35.70;;;;;;5052336;28;20112;-71
2021/04/25 08:37:07;;;;;;;7.05;4.47;;;23.30;35.20;;;;;;5053558;28;20465;-68
2021/04/25 08:39:32;;;;;;;6.93;3.75;;;23.80;34.70;;;;;;5052084;28;20543;-68
2021/04/25 08:41:58;;;;;;;6.28;4.28;;;24.40;34.20;;;;;;5051017;28;20031;-68
2021/04/25 08:44:24;;;;;;;6.60;4.32;;;24.90;33.40;;;;;;5052610;28;20458;-68
2021/04/25 08:46:51;;;;;;;9.00;3.83;;;25.10;32.50;;;;;;5040581;28;20520;-69
2021/04/25 08:49:18;;;;;;;5.68;4.07;;;25.20;32.10;;;;;;5052512;28;20078;-69
2021/04/25 08:51:44;;;;;;;7.93;4.47;;;25.40;31.70;;;;;;5050771;28;20028;-68
2021/04/25 08:54:13;;;;;;;7.13;4.65;;;25.70;31.70;;;;;;5052432;28;20028;-68
2021/04/25 08:56:39;;;;;;;6.53;4.20;;;26.00;31.00;;;;;;5050781;28;20021;-67
2021/04/25 08:59:06;;;;;;;8.35;4.13;;;26.00;30.50;;;;;;5044755;28;20059;-68
2021/04/25 09:01:31;;;;;;;6.20;3.58;;;26.20;30.60;;;;;;5052812;28;20113;-68
2021/04/25 09:03:57;;;;;;;5.30;3.58;;;26.40;30.40;;;;;;5052068;28;20576;-68
2021/04/25 09:06:22;;;;;;;8.15;4.10;;;26.70;30.40;;;;;;5052333;28;20116;-68
2021/04/25 09:08:57;;;;;;;5.95;3.78;;;26.90;30.40;;;;;;5048574;28;20118;-68
2021/04/25 09:11:40;;;;;;;4.40;3.55;;;27.20;30.00;;;;;;5051039;28;20037;-68
2021/04/25 09:14:22;;;;;;;5.03;3.42;;;27.40;30.00;;;;;;5049309;28;20036;-68
2021/04/25 09:17:00;;;;;;;5.78;3.58;;;27.60;30.00;;;;;;5051873;28;20034;-69
2021/04/25 09:19:47;;;;;;;5.75;3.33;;;27.70;29.70;;;;;;5052624;28;20035;-69
2021/04/25 09:22:12;;;;;;;4.20;3.03;;;27.90;29.80;;;;;;5052395;28;20691;-68
2021/04/25 09:24:38;;;;;;;5.30;3.05;;;28.00;29.10;;;;;;5051037;28;20192;-69
2021/04/25 09:27:04;;;;;;;6.03;3.35;;;28.10;29.00;;;;;;5051499;28;20029;-69
2021/04/25 09:29:51;;;;;;;14.75;10.57;;;28.10;28.80;;;;;;5050929;28;20392;-69
2021/04/25 09:32:21;;;;;;;6.30;3.20;;;28.40;28.70;;;;;;5051785;28;20033;-69
2021/04/25 09:34:47;;;;;;;8.82;3.70;;;28.50;28.00;;;;;;5051160;28;20488;-68
2021/04/25 09:39:58;;;;;;;4.65;3.15;;;28.60;28.00;;;;;;5028650;28;20594;-67
2021/04/25 09:42:24;;;;;;;5.15;2.97;;;28.50;28.20;;;;;;5019084;28;20072;-67
2021/04/25 09:44:51;;;;;;;6.25;2.72;;;28.40;28.10;;;;;;5026729;28;20017;-67
2021/04/25 09:47:17;;;;;;;4.05;2.80;;;28.30;28.30;;;;;;5030642;28;20025;-68
2021/04/25 09:49:49;;;;;;;5.38;3.00;;;28.20;27.50;;;;;;5031825;28;20025;-68
2021/04/25 09:52:37;;;;;;;6.70;2.90;;;28.10;27.30;;;;;;5031592;28;20022;-68
2021/04/25 09:55:34;;;;;;;4.90;2.95;;;27.90;27.70;;;;;;5012882;28;20041;-70
2021/04/25 09:58:07;;;;;;;4.30;2.95;;;27.60;28.00;;;;;;4999649;28;20164;-68
2021/04/25 10:00:41;;;;;;;3.58;2.92;;;27.30;27.80;;;;;;5014225;28;20092;-69
2021/04/25 10:03:11;;;;;;;4.65;2.80;;;27.10;28.40;;;;;;5028435;28;20028;-69
2021/04/25 10:05:59;;;;;;;5.45;3.10;;;27.00;28.40;;;;;;5029565;28;20021;-69
2021/04/25 10:08:36;;;;;;;5.45;3.20;;;26.70;28.70;;;;;;5004563;28;20564;-69
2021/04/25 10:11:05;;;;;;;5.65;3.80;;;26.40;28.60;;;;;;5030208;28;20052;-68
2021/04/25 10:13:33;;;;;;;3.95;3.13;;;26.10;28.50;;;;;;5030662;28;20421;-68
2021/04/25 10:15:58;;;;;;;6.55;2.60;;;25.70;28.70;;;;;;5011349;28;20030;-68
2021/04/25 10:18:25;;;;;;;4.70;3.22;;;25.40;28.70;;;;;;5012694;28;20432;-69
2021/04/25 10:20:53;;;;;;;4.07;2.80;;;25.20;28.30;;;;;;5013235;28;20132;-68
2021/04/25 10:23:19;;;;;;;11.05;3.42;;;25.00;28.20;;;;;;5029962;28;20076;-68
2021/04/25 10:25:46;;;;;;;3.10;2.80;;;24.70;27.80;;;;;;5027490;28;20033;-69
2021/04/25 10:28:18;;;;;;;6.38;3.10;;;24.40;28.00;;;;;;5029138;28;20025;-68
2021/04/25 10:30:44;;;;;;;;;;;24.20;28.00;;;;;;5025777;28;20112;-66
2021/04/25 10:33:09;;;;;;;4.25;2.90;;;23.90;29.10;;;;;;5018863;28;20000;-66
2021/04/25 10:35:35;;;;;;;5.18;3.03;;;23.60;28.60;;;;;;5011209;28;20133;-67
2021/04/25 10:38:04;;;;;;;7.07;2.80;;;23.50;29.20;;;;;;5009252;28;20481;-67
2021/04/25 10:40:32;;;;;;;4.97;3.33;;;23.40;29.20;;;;;;5015379;28;20021;-66
2021/04/25 10:43:10;;;;;;;4.13;2.90;;;23.20;29.10;;;;;;5009361;28;20828;-66
2021/04/25 10:45:55;;;;;;;4.32;2.80;;;23.00;28.90;;;;;;5028474;28;20025;-67
2021/04/25 10:48:21;;;;;;;5.38;2.83;;;23.00;29.20;;;;;;5030086;28;20025;-66
2021/04/25 10:51:09;;;;;;;5.85;2.78;;;22.80;29.40;;;;;;5029534;28;20631;-67
2021/04/25 10:53:42;;;;;;;4.68;2.95;;;22.70;29.40;;;;;;5011464;28;20064;-70
2021/04/25 10:56:14;;;;;;;6.18;2.60;;;22.50;29.30;;;;;;5007680;28;20080;-67
2021/04/25 10:58:45;;;;;;;5.22;2.63;;;22.40;29.00;;;;;;5030072;28;20084;-66
2021/04/25 11:01:39;;;;;;;4.35;3.10;;;22.30;28.70;;;;;;5030749;28;20048;-66
2021/04/25 11:04:08;;;;;;;5.20;3.10;;;22.00;29.10;;;;;;5011338;28;20708;-66
2021/04/25 11:06:34;;;;;;;3.40;2.85;;;21.90;28.70;;;;;;5029120;28;20032;-67
2021/04/25 11:09:01;;;;;;;7.75;3.33;;;21.80;28.60;;;;;;5027985;28;20029;-66
2021/04/25 11:11:34;;;;;;;4.88;3.22;;;21.60;29.10;;;;;;5015463;28;20030;-69
2021/04/25 11:14:00;;;;;;;5.43;3.70;;;21.50;29.30;;;;;;5024590;28;20030;-68
2021/04/25 11:16:31;;;;;;;5.53;3.45;;;21.40;29.20;;;;;;5026973;28;20025;-68
2021/04/25 11:19:09;;;;;;;8.13;3.10;;;21.30;29.20;;;;;;5028044;28;20049;-65
2021/04/25 11:21:53;;;;;;;8.10;3.20;;;21.20;29.10;;;;;;5029146;28;20025;-65
2021/04/25 11:24:22;;;;;;;4.35;2.85;;;21.00;29.20;;;;;;5027583;28;20114;-66
2021/04/25 11:26:52;;;;;;;5.65;3.00;;;20.90;29.60;;;;;;5027780;28;20030;-66
2021/04/25 11:29:27;;;;;;;6.15;3.25;;;20.80;29.50;;;;;;5021645;28;20624;-69
2021/04/25 11:31:57;;;;;;;5.18;2.90;;;20.70;29.70;;;;;;5009332;28;20033;-70
2021/04/25 11:34:25;;;;;;;5.05;2.85;;;20.50;30.00;;;;;;5028659;28;20025;-69
2021/04/25 11:36:57;;;;;;;4.03;2.40;;;20.40;30.00;;;;;;5030817;28;20029;-69
2021/04/25 11:39:25;;;;;;;6.15;3.13;;;20.30;29.80;;;;;;5013988;28;20401;-68
2021/04/25 11:41:51;;;;;;;3.92;2.85;;;20.30;30.20;;;;;;5032529;28;20115;-71
2021/04/25 11:44:49;;;;;;;6.68;2.80;;;20.30;30.00;;;;;;5030826;28;20025;-69
2021/04/25 11:47:17;;;;;;;10.65;2.97;;;20.20;29.80;;;;;;4978051;28;20033;-71
2021/04/25 11:49:52;;;;;;;7.05;2.80;;;20.10;29.90;;;;;;5015360;28;20416;-72
2021/04/25 11:52:23;;;;;;;4.40;2.80;;;20.10;30.20;;;;;;5013951;28;20029;-74
2021/04/25 11:54:55;;;;;;;8.13;3.50;;;20.10;30.00;;;;;;5031680;28;20017;-75
2021/04/25 11:57:22;;;;;;;5.22;2.97;;;20.10;30.00;;;;;;5012301;28;20382;-73
2021/04/25 12:00:09;;;;;;;4.45;2.80;;;20.00;30.50;;;;;;5032926;28;20037;-72
2021/04/25 12:02:49;;;;;;;6.97;2.70;;;20.00;30.00;;;;;;5032078;28;20045;-73
2021/04/25 12:05:19;;;;;;;3.53;2.28;;;20.00;30.70;;;;;;5032285;28;20025;-73
2021/04/25 12:07:48;;;;;;;4.68;2.33;;;20.00;30.50;;;;;;5001601;28;20026;-71
2021/04/25 12:10:22;;;;;;;4.45;2.55;;;20.00;31.10;;;;;;5002361;28;20022;-71
2021/04/25 12:13:02;;;;;;;5.43;2.47;;;20.20;30.60;;;;;;5011071;28;20040;-73
2021/04/25 12:15:37;;;;;;;5.55;2.63;;;20.20;30.00;;;;;;5005118;28;20068;-73
2021/04/25 12:18:03;;;;;;;4.80;2.35;;;19.90;29.70;;;;;;5032652;28;20129;-73
2021/04/25 12:20:29;;;;;;;5.25;2.72;;;19.80;30.40;;;;;;5032162;28;20116;-75
2021/04/25 12:22:55;;;;;;;7.93;2.50;;;19.80;30.40;;;;;;5031347;28;20022;-70
2021/04/25 12:25:22;;;;;;;5.55;2.63;;;19.80;30.00;;;;;;5029182;28;20022;-71
2021/04/25 12:27:53;;;;;;;5.70;2.90;;;19.70;29.90;;;;;;5012510;28;20445;-70
2021/04/25 12:30:30;;;;;;;4.43;2.57;;;19.60;30.00;;;;;;5031054;28;20082;-70
2021/04/25 12:33:06;;;;;;;4.38;2.45;;;19.50;30.00;;;;;;5023367;28;20083;-70
2021/04/25 12:35:33;;;;;;;3.28;2.38;;;19.30;30.10;;;;;;4998491;28;20099;-70
2021/04/25 12:37:59;;;;;;;4.07;2.30;;;19.30;30.30;;;;;;4991566;28;582950;-68
2021/04/25 12:40:29;;;;;;;4.20;2.40;;;19.40;30.50;;;;;;5014551;28;20022;-68
2021/04/25 12:43:14;;;;;;;4.05;2.60;;;19.40;30.20;;;;;;5032862;28;20029;-68
2021/04/25 12:45:43;;;;;;;5.68;2.45;;;19.50;30.40;;;;;;5031536;28;20017;-68
2021/04/25 12:48:42;;;;;;;2.70;2.33;;;19.50;30.40;;;;;;5013962;28;20033;-69
2021/04/25 12:51:12;;;;;;;3.75;2.28;;;19.50;30.20;;;;;;4987788;28;20045;-69
2021/04/25 12:53:43;;;;;;;8.40;2.35;;;19.60;30.50;;;;;;5012935;28;20022;-69